• Join FlightAware (Why Join?)
  • Login
  • US Flag 
04:29AM EDT


 

Airport Tracker/Info


-or-


 

Live Flight TrackerFlight Track Log ✈ TRS882 ✈ 28-Jun-2013 ✈ KATL - KMEM

Flight Track Log - Related Links

Times and Time Zones

All times are in EDT time to prevent confusion due to time zone crossing. See the TRS882 flight status page for this flight to view local times or setup timezone preferences in your user account.

Time Position Orientation Groundspeed Altitude Reporting Facility
EDT Latitude Longitude Course Direction KTS MPH feet Rate Location/Type
06:30PM 33.6667 -84.5000 287° West 205 236 3,100  Level Atlanta TRACON
06:31PM 33.6833 -84.5667 287° West 250 288 4,600 1,980 Climbing Atlanta TRACON
06:32PM 33.7667 -84.5833 351° North 261 300 7,100 2,040 Climbing Atlanta TRACON
06:33PM 33.8767 -84.5817 North 284 327 9,900 1,500 Climbing Atlanta Center
06:34PM 33.9558 -84.6047 346° North 289 333 10,900 1,440 Climbing Atlanta Center
06:35PM 34.0475 -84.6381 343° North 322 371 12,800 2,100 Climbing Atlanta Center
06:36PM 34.1494 -84.6764 343° North 360 414 15,100 2,040 Climbing Atlanta Center
06:37PM 34.2411 -84.7097 343° North 373 429 16,900 1,920 Climbing Atlanta Center
06:38PM 34.3453 -84.7533 341° North 392 451 19,000 1,920 Climbing Atlanta Center
06:39PM 34.4492 -84.8147 334° Northwest 410 472 20,800 1,560 Climbing Atlanta Center
06:40PM 34.5217 -84.9186 310° West 400 460 22,200 1,740 Climbing Atlanta Center
06:41PM 34.6000 -85.0256 312° West 410 472 24,300 1,800 Climbing Atlanta Center
06:42PM 34.6722 -85.1222 312° West 410 472 25,900 1,440 Climbing Atlanta Center
06:43PM 34.7508 -85.2219 314° West 403 464 27,200 1,020 Climbing Atlanta Center
06:44PM 34.8269 -85.3217 313° West 403 464 28,000 720 Climbing Atlanta Center
06:45PM 34.9072 -85.4242 314° West 403 464 28,700 780 Climbing Atlanta Center
06:46PM 34.9894 -85.5294 314° West 414 476 29,600 840 Climbing Atlanta Center
06:49PM 35.2303 -85.8019 317° Northwest 425 489 32,000 600 Climbing Memphis Center
06:50PM 35.3275 -85.8958 322° Northwest 430 495 32,000  Level Memphis Center
06:51PM 35.4225 -85.9850 323° Northwest 435 501 32,000  Level Memphis Center
06:52PM 35.5156 -86.0794 320° Northwest 435 501 32,000  Level Memphis Center
06:53PM 35.5758 -86.2014 301° West 423 487 32,000  Level Memphis Center
06:54PM 35.5950 -86.3408 280° West 397 457 32,000  Level Memphis Center
06:55PM 35.6144 -86.4856 279° West 421 484 32,000  Level Memphis Center
06:56PM 35.6350 -86.6150 281° West 433 498 32,000  Level Memphis Center
06:57PM 35.6539 -86.7597 279° West 439 505 32,000  Level Memphis Center
06:58PM 35.6747 -86.9094 280° West 444 511 32,000  Level Memphis Center
06:59PM 35.6975 -87.0517 281° West 444 511 32,000  Level Memphis Center
07:00PM 35.7139 -87.1994 278° West 444 511 32,000  Level Memphis Center
07:01PM 35.7386 -87.3569 281° West 444 511 32,000  Level Memphis Center
07:02PM 35.7567 -87.5047 279° West 444 511 32,000  Level Memphis Center
07:03PM 35.7767 -87.6497 280° West 439 505 32,000  Level Memphis Center
07:04PM 35.7964 -87.7950 280° West 439 505 32,000  Level Memphis Center
07:05PM 35.8161 -87.9456 279° West 446 513 32,000 -720 Level Memphis Center
07:06PM 35.8356 -88.0933 279° West 446 513 30,600 -1,320 Descending Memphis Center
07:07PM 35.8358 -88.2342 270° West 434 499 29,400 -1,200 Descending Memphis Center
07:08PM 35.7986 -88.3658 251° West 429 494 28,200 -1,500 Descending Memphis Center
07:09PM 35.7569 -88.5153 251° West 442 509 26,500 -1,620 Descending Memphis Center
07:10PM 35.7111 -88.6669 250° West 461 531 25,000 -1,800 Descending Memphis Center
07:11PM 35.6694 -88.8186 251° West 473 544 23,000 -1,560 Descending Memphis Center
07:12PM 35.6272 -88.9625 250° West 467 537 21,900 -2,700 Descending Memphis Center
07:13PM 35.5831 -89.1139 250° West 456 525 17,700 -3,540 Descending Memphis Center
07:14PM 35.5467 -89.2419 251° West 416 479 14,900 -2,520 Descending Memphis Center
07:15PM 35.5061 -89.3597 247° West 398 458 12,700 -1,920 Descending Memphis Center
07:16PM 35.4294 -89.4447 222° Southwest 370 426 11,100 -2,280 Descending Memphis Center
07:17PM 35.3569 -89.5017 213° Southwest 338 389 8,200 -2,340 Descending Memphis Center
07:18PM 35.2842 -89.5583 212° Southwest 321 369 6,500 -1,740 Descending Memphis Center
07:19PM 35.2136 -89.6097 211° Southwest 310 357 4,800 -1,560 Descending Memphis Center
07:20PM 35.1472 -89.6614 212° Southwest 299 344 3,400 -1,020 Descending Memphis Center
07:21PM 35.0850 -89.7100 213° Southwest 279 321 2,800 -780 Descending Memphis Center
07:22PM 35.0539 -89.7736 239° Southwest 236 272 1,900 -480 Descending Memphis Center
07:23PM 35.0583 -89.8447 274° West 209 241 1,900 -420 Level Memphis Center
07:24PM 35.0586 -89.9056 270° West 193 222 1,100 -720 Descending Memphis Center
07:25PM 35.0589 -89.9486 270° West 168 193 500 -600 Descending Memphis Center